sensor_id;sensor_type;location;lat;lon;timestamp;temperature;humidity
34815;DHT22;21030;53.912;15.214;2022-08-19T00:02:00;41.70;34.10
34815;DHT22;21030;53.912;15.214;2022-08-19T00:04:29;41.60;34.10
34815;DHT22;21030;53.912;15.214;2022-08-19T00:06:57;41.70;34.00
34815;DHT22;21030;53.912;15.214;2022-08-19T00:09:24;41.80;33.60
34815;DHT22;21030;53.912;15.214;2022-08-19T00:11:52;41.70;33.20
34815;DHT22;21030;53.912;15.214;2022-08-19T00:14:20;41.80;33.40
34815;DHT22;21030;53.912;15.214;2022-08-19T00:16:47;41.60;33.20
34815;DHT22;21030;53.912;15.214;2022-08-19T00:19:15;41.50;33.40
34815;DHT22;21030;53.912;15.214;2022-08-19T00:21:42;41.20;33.60
34815;DHT22;21030;53.912;15.214;2022-08-19T00:24:10;41.20;33.90
34815;DHT22;21030;53.912;15.214;2022-08-19T00:26:37;41.30;33.80
34815;DHT22;21030;53.912;15.214;2022-08-19T00:29:06;41.00;33.90
34815;DHT22;21030;53.912;15.214;2022-08-19T00:31:33;40.70;34.20
34815;DHT22;21030;53.912;15.214;2022-08-19T00:34:00;40.60;34.70
34815;DHT22;21030;53.912;15.214;2022-08-19T00:36:27;40.60;34.60
34815;DHT22;21030;53.912;15.214;2022-08-19T00:38:55;40.60;34.60
34815;DHT22;21030;53.912;15.214;2022-08-19T00:41:23;40.50;34.80
34815;DHT22;21030;53.912;15.214;2022-08-19T00:46:30;39.60;35.20
34815;DHT22;21030;53.912;15.214;2022-08-19T00:48:58;39.50;35.80
34815;DHT22;21030;53.912;15.214;2022-08-19T00:51:26;39.10;35.90
34815;DHT22;21030;53.912;15.214;2022-08-19T00:53:54;39.10;36.40
34815;DHT22;21030;53.912;15.214;2022-08-19T00:56:21;39.20;36.30
34815;DHT22;21030;53.912;15.214;2022-08-19T00:58:49;39.10;36.50
34815;DHT22;21030;53.912;15.214;2022-08-19T01:01:16;38.70;36.70
34815;DHT22;21030;53.912;15.214;2022-08-19T01:03:43;38.70;37.00
34815;DHT22;21030;53.912;15.214;2022-08-19T01:06:25;38.40;37.40
34815;DHT22;21030;53.912;15.214;2022-08-19T01:08:52;38.50;37.30
34815;DHT22;21030;53.912;15.214;2022-08-19T01:11:19;38.60;37.40
34815;DHT22;21030;53.912;15.214;2022-08-19T01:13:46;38.90;37.10
34815;DHT22;21030;53.912;15.214;2022-08-19T01:16:17;38.80;37.10
34815;DHT22;21030;53.912;15.214;2022-08-19T01:18:45;38.70;37.10
34815;DHT22;21030;53.912;15.214;2022-08-19T01:21:16;38.60;37.40
34815;DHT22;21030;53.912;15.214;2022-08-19T01:23:45;38.70;37.00
34815;DHT22;21030;53.912;15.214;2022-08-19T01:26:13;38.70;37.10
34815;DHT22;21030;53.912;15.214;2022-08-19T01:28:42;39.20;36.40
34815;DHT22;21030;53.912;15.214;2022-08-19T01:31:13;39.60;36.10
34815;DHT22;21030;53.912;15.214;2022-08-19T01:33:55;39.90;35.90
34815;DHT22;21030;53.912;15.214;2022-08-19T01:36:33;40.40;35.20
34815;DHT22;21030;53.912;15.214;2022-08-19T01:39:01;40.50;35.00
34815;DHT22;21030;53.912;15.214;2022-08-19T01:41:30;40.60;34.50
34815;DHT22;21030;53.912;15.214;2022-08-19T01:43:56;40.80;34.90
34815;DHT22;21030;53.912;15.214;2022-08-19T01:46:43;40.90;34.00
34815;DHT22;21030;53.912;15.214;2022-08-19T01:49:10;40.50;34.30
34815;DHT22;21030;53.912;15.214;2022-08-19T01:51:37;40.80;34.40
34815;DHT22;21030;53.912;15.214;2022-08-19T01:54:06;40.90;34.00
34815;DHT22;21030;53.912;15.214;2022-08-19T01:56:33;41.00;33.90
34815;DHT22;21030;53.912;15.214;2022-08-19T01:59:03;41.10;33.80
34815;DHT22;21030;53.912;15.214;2022-08-19T02:01:31;41.30;33.50
34815;DHT22;21030;53.912;15.214;2022-08-19T02:03:59;41.40;33.30
34815;DHT22;21030;53.912;15.214;2022-08-19T02:06:27;41.50;33.40
34815;DHT22;21030;53.912;15.214;2022-08-19T02:08:54;41.60;33.20
34815;DHT22;21030;53.912;15.214;2022-08-19T02:11:24;41.40;33.30
34815;DHT22;21030;53.912;15.214;2022-08-19T02:13:53;41.50;33.30
34815;DHT22;21030;53.912;15.214;2022-08-19T02:16:20;41.60;33.00
34815;DHT22;21030;53.912;15.214;2022-08-19T02:18:47;41.80;33.00
34815;DHT22;21030;53.912;15.214;2022-08-19T02:21:18;41.90;32.70
34815;DHT22;21030;53.912;15.214;2022-08-19T02:23:45;42.00;32.50
34815;DHT22;21030;53.912;15.214;2022-08-19T02:26:12;42.00;32.20
34815;DHT22;21030;53.912;15.214;2022-08-19T02:28:40;42.00;32.40
34815;DHT22;21030;53.912;15.214;2022-08-19T02:31:09;42.00;32.40
34815;DHT22;21030;53.912;15.214;2022-08-19T02:33:36;42.10;32.30
34815;DHT22;21030;53.912;15.214;2022-08-19T02:36:03;42.20;32.30
34815;DHT22;21030;53.912;15.214;2022-08-19T02:38:31;42.10;32.30
34815;DHT22;21030;53.912;15.214;2022-08-19T02:41:00;42.30;32.40
34815;DHT22;21030;53.912;15.214;2022-08-19T02:43:27;42.30;32.10
34815;DHT22;21030;53.912;15.214;2022-08-19T02:46:00;42.40;32.00
34815;DHT22;21030;53.912;15.214;2022-08-19T02:48:27;42.40;31.90
34815;DHT22;21030;53.912;15.214;2022-08-19T02:50:54;42.50;31.90
34815;DHT22;21030;53.912;15.214;2022-08-19T02:53:22;42.60;31.80
34815;DHT22;21030;53.912;15.214;2022-08-19T02:55:50;42.50;31.70
34815;DHT22;21030;53.912;15.214;2022-08-19T02:58:17;42.60;31.80
34815;DHT22;21030;53.912;15.214;2022-08-19T03:00:46;42.60;31.80
34815;DHT22;21030;53.912;15.214;2022-08-19T03:03:15;42.60;31.70
34815;DHT22;21030;53.912;15.214;2022-08-19T03:05:42;42.50;31.80
34815;DHT22;21030;53.912;15.214;2022-08-19T03:08:21;42.50;31.90
34815;DHT22;21030;53.912;15.214;2022-08-19T03:10:48;42.50;31.80
34815;DHT22;21030;53.912;15.214;2022-08-19T03:13:16;42.50;31.90
34815;DHT22;21030;53.912;15.214;2022-08-19T03:15:46;42.40;32.10
34815;DHT22;21030;53.912;15.214;2022-08-19T03:18:13;42.40;32.00
34815;DHT22;21030;53.912;15.214;2022-08-19T03:20:44;42.40;32.00
34815;DHT22;21030;53.912;15.214;2022-08-19T03:23:11;42.30;32.10
34815;DHT22;21030;53.912;15.214;2022-08-19T03:25:40;42.30;32.10
34815;DHT22;21030;53.912;15.214;2022-08-19T03:28:10;42.30;32.20
34815;DHT22;21030;53.912;15.214;2022-08-19T03:30:38;42.30;32.10
34815;DHT22;21030;53.912;15.214;2022-08-19T03:33:09;42.30;32.10
34815;DHT22;21030;53.912;15.214;2022-08-19T03:35:43;42.50;32.00
34815;DHT22;21030;53.912;15.214;2022-08-19T03:38:11;42.50;31.70
34815;DHT22;21030;53.912;15.214;2022-08-19T03:40:38;42.50;31.70
34815;DHT22;21030;53.912;15.214;2022-08-19T03:43:05;42.60;31.60
34815;DHT22;21030;53.912;15.214;2022-08-19T03:45:32;42.40;31.70
34815;DHT22;21030;53.912;15.214;2022-08-19T03:47:59;42.40;31.70
34815;DHT22;21030;53.912;15.214;2022-08-19T03:50:26;42.40;31.70
34815;DHT22;21030;53.912;15.214;2022-08-19T03:52:53;42.40;31.70
34815;DHT22;21030;53.912;15.214;2022-08-19T03:55:20;42.30;31.60
34815;DHT22;21030;53.912;15.214;2022-08-19T03:57:46;42.30;31.60
34815;DHT22;21030;53.912;15.214;2022-08-19T04:00:15;42.30;31.80
34815;DHT22;21030;53.912;15.214;2022-08-19T04:02:42;42.10;31.70
34815;DHT22;21030;53.912;15.214;2022-08-19T04:05:27;42.10;31.90
34815;DHT22;21030;53.912;15.214;2022-08-19T04:07:55;42.10;31.80
34815;DHT22;21030;53.912;15.214;2022-08-19T04:10:26;42.30;31.70
34815;DHT22;21030;53.912;15.214;2022-08-19T04:12:54;42.40;31.60
34815;DHT22;21030;53.912;15.214;2022-08-19T04:15:21;42.40;31.50
34815;DHT22;21030;53.912;15.214;2022-08-19T04:17:48;42.40;31.40
34815;DHT22;21030;53.912;15.214;2022-08-19T04:20:14;42.40;31.40
34815;DHT22;21030;53.912;15.214;2022-08-19T04:22:41;42.50;31.50
34815;DHT22;21030;53.912;15.214;2022-08-19T04:25:08;42.50;31.40
34815;DHT22;21030;53.912;15.214;2022-08-19T04:27:35;42.40;31.20
34815;DHT22;21030;53.912;15.214;2022-08-19T04:30:03;42.30;31.40
34815;DHT22;21030;53.912;15.214;2022-08-19T04:32:30;42.40;31.30
34815;DHT22;21030;53.912;15.214;2022-08-19T04:34:58;42.40;31.30
34815;DHT22;21030;53.912;15.214;2022-08-19T04:37:43;42.40;31.00
34815;DHT22;21030;53.912;15.214;2022-08-19T04:40:10;42.40;30.90
34815;DHT22;21030;53.912;15.214;2022-08-19T04:42:56;42.40;31.00
34815;DHT22;21030;53.912;15.214;2022-08-19T04:45:23;42.60;30.70
34815;DHT22;21030;53.912;15.214;2022-08-19T04:47:54;42.80;30.70
34815;DHT22;21030;53.912;15.214;2022-08-19T04:50:43;42.70;30.40
34815;DHT22;21030;53.912;15.214;2022-08-19T04:53:10;42.70;30.60
34815;DHT22;21030;53.912;15.214;2022-08-19T04:55:41;42.90;30.60
34815;DHT22;21030;53.912;15.214;2022-08-19T04:58:08;42.90;30.30
34815;DHT22;21030;53.912;15.214;2022-08-19T05:00:37;42.70;30.10
34815;DHT22;21030;53.912;15.214;2022-08-19T05:03:04;42.80;30.40
34815;DHT22;21030;53.912;15.214;2022-08-19T05:05:33;42.80;30.60
34815;DHT22;21030;53.912;15.214;2022-08-19T05:08:11;42.60;30.30
34815;DHT22;21030;53.912;15.214;2022-08-19T05:10:40;42.30;30.40
34815;DHT22;21030;53.912;15.214;2022-08-19T05:13:07;42.30;31.00
34815;DHT22;21030;53.912;15.214;2022-08-19T05:15:35;42.50;30.90
34815;DHT22;21030;53.912;15.214;2022-08-19T05:18:02;42.90;30.80
34815;DHT22;21030;53.912;15.214;2022-08-19T05:20:49;43.10;30.40
34815;DHT22;21030;53.912;15.214;2022-08-19T05:23:34;43.40;30.20
34815;DHT22;21030;53.912;15.214;2022-08-19T05:26:01;43.50;30.00
34815;DHT22;21030;53.912;15.214;2022-08-19T05:28:28;43.60;30.00
34815;DHT22;21030;53.912;15.214;2022-08-19T05:30:56;43.60;29.80
34815;DHT22;21030;53.912;15.214;2022-08-19T05:33:26;43.80;29.70
34815;DHT22;21030;53.912;15.214;2022-08-19T05:35:54;44.00;29.50
34815;DHT22;21030;53.912;15.214;2022-08-19T05:38:22;44.10;29.50
34815;DHT22;21030;53.912;15.214;2022-08-19T05:40:49;43.90;28.90
34815;DHT22;21030;53.912;15.214;2022-08-19T05:43:16;44.00;28.90
34815;DHT22;21030;53.912;15.214;2022-08-19T05:45:43;44.20;29.30
34815;DHT22;21030;53.912;15.214;2022-08-19T05:48:10;44.20;29.40
34815;DHT22;21030;53.912;15.214;2022-08-19T05:50:38;44.40;29.30
34815;DHT22;21030;53.912;15.214;2022-08-19T05:53:06;44.40;29.20
34815;DHT22;21030;53.912;15.214;2022-08-19T05:55:35;44.40;29.10
34815;DHT22;21030;53.912;15.214;2022-08-19T05:58:04;44.40;29.10
34815;DHT22;21030;53.912;15.214;2022-08-19T06:00:34;44.50;28.90
34815;DHT22;21030;53.912;15.214;2022-08-19T06:03:02;44.50;28.90
34815;DHT22;21030;53.912;15.214;2022-08-19T06:05:38;44.80;29.10
34815;DHT22;21030;53.912;15.214;2022-08-19T06:08:17;45.10;29.10
34815;DHT22;21030;53.912;15.214;2022-08-19T06:10:45;45.30;28.80
34815;DHT22;21030;53.912;15.214;2022-08-19T06:13:12;45.40;28.30
34815;DHT22;21030;53.912;15.214;2022-08-19T06:15:38;45.50;28.30
34815;DHT22;21030;53.912;15.214;2022-08-19T06:18:07;45.70;28.10
34815;DHT22;21030;53.912;15.214;2022-08-19T06:20:34;45.60;27.70
34815;DHT22;21030;53.912;15.214;2022-08-19T06:23:20;45.80;28.00
34815;DHT22;21030;53.912;15.214;2022-08-19T06:25:49;46.00;27.80
34815;DHT22;21030;53.912;15.214;2022-08-19T06:28:16;46.50;27.90
34815;DHT22;21030;53.912;15.214;2022-08-19T06:30:44;46.60;27.40
34815;DHT22;21030;53.912;15.214;2022-08-19T06:33:11;46.80;27.40
34815;DHT22;21030;53.912;15.214;2022-08-19T06:35:38;46.90;27.30
34815;DHT22;21030;53.912;15.214;2022-08-19T06:38:05;46.90;27.30
34815;DHT22;21030;53.912;15.214;2022-08-19T06:40:32;46.80;27.40
34815;DHT22;21030;53.912;15.214;2022-08-19T06:42:59;46.80;27.30
34815;DHT22;21030;53.912;15.214;2022-08-19T06:45:32;47.00;27.40
34815;DHT22;21030;53.912;15.214;2022-08-19T06:48:01;47.10;27.20
34815;DHT22;21030;53.912;15.214;2022-08-19T06:50:28;47.00;27.00
34815;DHT22;21030;53.912;15.214;2022-08-19T06:52:55;46.80;27.10
34815;DHT22;21030;53.912;15.214;2022-08-19T06:55:23;46.80;28.00
34815;DHT22;21030;53.912;15.214;2022-08-19T06:57:50;46.60;27.20
34815;DHT22;21030;53.912;15.214;2022-08-19T07:00:20;46.50;27.30
34815;DHT22;21030;53.912;15.214;2022-08-19T07:02:47;46.20;27.40
34815;DHT22;21030;53.912;15.214;2022-08-19T07:05:24;46.10;27.60
34815;DHT22;21030;53.912;15.214;2022-08-19T07:07:51;45.70;27.90
34815;DHT22;21030;53.912;15.214;2022-08-19T07:10:18;45.50;28.40
34815;DHT22;21030;53.912;15.214;2022-08-19T07:12:45;45.50;28.40
34815;DHT22;21030;53.912;15.214;2022-08-19T07:15:14;45.40;28.50
34815;DHT22;21030;53.912;15.214;2022-08-19T07:17:44;45.20;28.60
34815;DHT22;21030;53.912;15.214;2022-08-19T07:20:14;45.20;28.90
34815;DHT22;21030;53.912;15.214;2022-08-19T07:22:43;45.20;29.00
34815;DHT22;21030;53.912;15.214;2022-08-19T07:25:12;45.30;29.10
34815;DHT22;21030;53.912;15.214;2022-08-19T07:27:39;45.30;29.10
34815;DHT22;21030;53.912;15.214;2022-08-19T07:30:07;45.40;29.30
34815;DHT22;21030;53.912;15.214;2022-08-19T07:32:37;45.50;29.40
34815;DHT22;21030;53.912;15.214;2022-08-19T07:35:04;45.50;29.30
34815;DHT22;21030;53.912;15.214;2022-08-19T07:37:32;45.60;29.10
34815;DHT22;21030;53.912;15.214;2022-08-19T07:40:01;45.60;29.00
34815;DHT22;21030;53.912;15.214;2022-08-19T07:42:28;45.80;28.90
34815;DHT22;21030;53.912;15.214;2022-08-19T07:44:56;46.10;28.80
34815;DHT22;21030;53.912;15.214;2022-08-19T07:47:23;46.10;28.20
34815;DHT22;21030;53.912;15.214;2022-08-19T07:50:10;46.30;28.30
34815;DHT22;21030;53.912;15.214;2022-08-19T07:52:38;46.20;28.30
34815;DHT22;21030;53.912;15.214;2022-08-19T07:55:07;46.20;28.30
34815;DHT22;21030;53.912;15.214;2022-08-19T07:57:54;46.30;28.40
34815;DHT22;21030;53.912;15.214;2022-08-19T08:00:21;46.40;28.40
34815;DHT22;21030;53.912;15.214;2022-08-19T08:02:50;46.40;28.40
34815;DHT22;21030;53.912;15.214;2022-08-19T08:05:20;46.40;28.30
34815;DHT22;21030;53.912;15.214;2022-08-19T08:08:10;46.30;28.10
34815;DHT22;21030;53.912;15.214;2022-08-19T08:10:55;46.30;28.20
34815;DHT22;21030;53.912;15.214;2022-08-19T08:13:23;46.10;28.20
34815;DHT22;21030;53.912;15.214;2022-08-19T08:15:52;45.90;28.30
34815;DHT22;21030;53.912;15.214;2022-08-19T08:18:21;45.90;28.50
34815;DHT22;21030;53.912;15.214;2022-08-19T08:20:54;46.00;28.80
34815;DHT22;21030;53.912;15.214;2022-08-19T08:23:21;46.00;28.70
34815;DHT22;21030;53.912;15.214;2022-08-19T08:25:56;45.90;28.80
34815;DHT22;21030;53.912;15.214;2022-08-19T08:28:24;46.00;28.90
34815;DHT22;21030;53.912;15.214;2022-08-19T08:30:55;46.10;29.10
34815;DHT22;21030;53.912;15.214;2022-08-19T08:33:23;46.10;28.80
34815;DHT22;21030;53.912;15.214;2022-08-19T08:36:00;46.10;28.90
34815;DHT22;21030;53.912;15.214;2022-08-19T08:38:29;46.10;28.60
34815;DHT22;21030;53.912;15.214;2022-08-19T08:43:54;46.20;28.70
34815;DHT22;21030;53.912;15.214;2022-08-19T08:49:24;46.10;28.70
34815;DHT22;21030;53.912;15.214;2022-08-19T08:52:04;45.90;29.00
34815;DHT22;21030;53.912;15.214;2022-08-19T08:54:36;45.60;28.90
34815;DHT22;21030;53.912;15.214;2022-08-19T08:57:06;45.60;29.40
34815;DHT22;21030;53.912;15.214;2022-08-19T08:59:35;45.30;29.80
34815;DHT22;21030;53.912;15.214;2022-08-19T09:02:03;45.00;30.10
34815;DHT22;21030;53.912;15.214;2022-08-19T09:04:30;45.00;30.90
34815;DHT22;21030;53.912;15.214;2022-08-19T09:07:03;44.90;30.80
34815;DHT22;21030;53.912;15.214;2022-08-19T09:09:56;45.10;30.70
34815;DHT22;21030;53.912;15.214;2022-08-19T09:12:35;45.30;30.00
34815;DHT22;21030;53.912;15.214;2022-08-19T09:15:09;45.50;29.90
34815;DHT22;21030;53.912;15.214;2022-08-19T09:17:37;45.70;30.10
34815;DHT22;21030;53.912;15.214;2022-08-19T09:22:41;45.70;30.60
34815;DHT22;21030;53.912;15.214;2022-08-19T09:25:14;45.70;29.90
34815;DHT22;21030;53.912;15.214;2022-08-19T09:27:42;45.60;30.00
34815;DHT22;21030;53.912;15.214;2022-08-19T09:30:17;45.50;30.00
34815;DHT22;21030;53.912;15.214;2022-08-19T09:32:44;45.40;30.00
34815;DHT22;21030;53.912;15.214;2022-08-19T09:35:12;45.30;30.20
34815;DHT22;21030;53.912;15.214;2022-08-19T09:37:39;45.20;30.10
34815;DHT22;21030;53.912;15.214;2022-08-19T09:40:08;45.00;30.80
34815;DHT22;21030;53.912;15.214;2022-08-19T09:42:37;45.00;31.30
34815;DHT22;21030;53.912;15.214;2022-08-19T09:45:16;45.00;31.00
34815;DHT22;21030;53.912;15.214;2022-08-19T09:47:43;45.00;31.10
34815;DHT22;21030;53.912;15.214;2022-08-19T09:50:12;45.10;31.20
34815;DHT22;21030;53.912;15.214;2022-08-19T09:52:42;45.10;31.30
34815;DHT22;21030;53.912;15.214;2022-08-19T09:55:23;45.10;31.10
34815;DHT22;21030;53.912;15.214;2022-08-19T09:57:59;45.00;31.40
34815;DHT22;21030;53.912;15.214;2022-08-19T10:00:25;44.90;31.60
34815;DHT22;21030;53.912;15.214;2022-08-19T10:02:53;44.90;31.80
34815;DHT22;21030;53.912;15.214;2022-08-19T10:05:20;44.70;31.60
34815;DHT22;21030;53.912;15.214;2022-08-19T10:08:08;44.70;32.10
34815;DHT22;21030;53.912;15.214;2022-08-19T10:10:40;44.70;32.70
34815;DHT22;21030;53.912;15.214;2022-08-19T10:13:13;44.70;31.70
34815;DHT22;21030;53.912;15.214;2022-08-19T10:15:40;44.70;32.10
34815;DHT22;21030;53.912;15.214;2022-08-19T10:18:14;44.70;32.30
34815;DHT22;21030;53.912;15.214;2022-08-19T10:20:43;44.70;32.50
34815;DHT22;21030;53.912;15.214;2022-08-19T10:23:18;44.90;32.70
34815;DHT22;21030;53.912;15.214;2022-08-19T10:25:45;44.90;32.60
34815;DHT22;21030;53.912;15.214;2022-08-19T10:28:13;45.00;32.50
34815;DHT22;21030;53.912;15.214;2022-08-19T10:30:40;45.00;31.70
34815;DHT22;21030;53.912;15.214;2022-08-19T10:33:08;44.90;31.70
34815;DHT22;21030;53.912;15.214;2022-08-19T10:35:37;45.00;31.80
34815;DHT22;21030;53.912;15.214;2022-08-19T10:38:23;44.80;32.10
34815;DHT22;21030;53.912;15.214;2022-08-19T10:40:57;44.80;32.00
34815;DHT22;21030;53.912;15.214;2022-08-19T10:43:24;44.80;32.10
34815;DHT22;21030;53.912;15.214;2022-08-19T10:45:52;44.90;32.20
34815;DHT22;21030;53.912;15.214;2022-08-19T10:48:21;45.00;31.80
34815;DHT22;21030;53.912;15.214;2022-08-19T10:50:48;45.10;32.00
34815;DHT22;21030;53.912;15.214;2022-08-19T10:53:33;45.30;31.80
34815;DHT22;21030;53.912;15.214;2022-08-19T10:56:01;45.20;31.80
34815;DHT22;21030;53.912;15.214;2022-08-19T10:58:47;45.10;31.80
34815;DHT22;21030;53.912;15.214;2022-08-19T11:01:15;45.00;32.10
34815;DHT22;21030;53.912;15.214;2022-08-19T11:03:42;44.90;32.10
34815;DHT22;21030;53.912;15.214;2022-08-19T11:06:11;44.90;32.00
34815;DHT22;21030;53.912;15.214;2022-08-19T11:08:38;45.00;31.80
34815;DHT22;21030;53.912;15.214;2022-08-19T11:11:06;45.00;31.90
34815;DHT22;21030;53.912;15.214;2022-08-19T11:13:34;45.10;33.00
34815;DHT22;21030;53.912;15.214;2022-08-19T11:16:05;44.90;32.80
34815;DHT22;21030;53.912;15.214;2022-08-19T11:18:37;44.60;32.70
34815;DHT22;21030;53.912;15.214;2022-08-19T11:21:06;44.50;32.60
34815;DHT22;21030;53.912;15.214;2022-08-19T11:23:33;44.30;32.70
34815;DHT22;21030;53.912;15.214;2022-08-19T11:26:00;44.10;32.70
34815;DHT22;21030;53.912;15.214;2022-08-19T11:28:28;44.10;33.20
34815;DHT22;21030;53.912;15.214;2022-08-19T11:30:55;44.10;32.70
34815;DHT22;21030;53.912;15.214;2022-08-19T11:33:22;44.20;32.30
34815;DHT22;21030;53.912;15.214;2022-08-19T11:35:49;44.50;32.30
34815;DHT22;21030;53.912;15.214;2022-08-19T11:38:16;44.50;31.90
34815;DHT22;21030;53.912;15.214;2022-08-19T11:40:42;44.80;32.00
34815;DHT22;21030;53.912;15.214;2022-08-19T11:43:10;45.30;32.30
34815;DHT22;21030;53.912;15.214;2022-08-19T11:45:36;45.60;31.80
34815;DHT22;21030;53.912;15.214;2022-08-19T11:48:03;45.80;31.20
34815;DHT22;21030;53.912;15.214;2022-08-19T11:50:30;46.10;31.00
34815;DHT22;21030;53.912;15.214;2022-08-19T11:52:57;46.50;30.30
34815;DHT22;21030;53.912;15.214;2022-08-19T11:55:24;46.70;30.00
34815;DHT22;21030;53.912;15.214;2022-08-19T11:57:51;47.10;30.40
34815;DHT22;21030;53.912;15.214;2022-08-19T12:00:18;47.50;29.80
34815;DHT22;21030;53.912;15.214;2022-08-19T12:02:45;47.70;29.60
34815;DHT22;21030;53.912;15.214;2022-08-19T12:05:12;48.10;29.50
34815;DHT22;21030;53.912;15.214;2022-08-19T12:07:39;48.20;29.30
34815;DHT22;21030;53.912;15.214;2022-08-19T12:10:07;48.50;29.10
34815;DHT22;21030;53.912;15.214;2022-08-19T12:12:36;48.70;28.80
34815;DHT22;21030;53.912;15.214;2022-08-19T12:15:07;48.60;28.40
34815;DHT22;21030;53.912;15.214;2022-08-19T12:17:34;48.70;28.40
34815;DHT22;21030;53.912;15.214;2022-08-19T12:20:01;48.80;28.40
34815;DHT22;21030;53.912;15.214;2022-08-19T12:22:28;48.80;28.60
34815;DHT22;21030;53.912;15.214;2022-08-19T12:24:55;49.20;28.50
34815;DHT22;21030;53.912;15.214;2022-08-19T12:27:22;49.60;28.30
34815;DHT22;21030;53.912;15.214;2022-08-19T12:30:06;50.10;27.50
34815;DHT22;21030;53.912;15.214;2022-08-19T12:32:34;50.90;27.20
34815;DHT22;21030;53.912;15.214;2022-08-19T12:35:01;51.40;26.50
34815;DHT22;21030;53.912;15.214;2022-08-19T12:37:28;51.80;25.70
34815;DHT22;21030;53.912;15.214;2022-08-19T12:39:55;52.30;25.20
34815;DHT22;21030;53.912;15.214;2022-08-19T12:42:22;52.80;25.30
34815;DHT22;21030;53.912;15.214;2022-08-19T12:44:49;53.20;24.60
34815;DHT22;21030;53.912;15.214;2022-08-19T12:47:17;53.50;24.00
34815;DHT22;21030;53.912;15.214;2022-08-19T12:49:45;53.80;23.40
34815;DHT22;21030;53.912;15.214;2022-08-19T12:52:20;53.70;22.80
34815;DHT22;21030;53.912;15.214;2022-08-19T12:54:49;53.90;22.70
34815;DHT22;21030;53.912;15.214;2022-08-19T12:57:20;54.10;22.80
34815;DHT22;21030;53.912;15.214;2022-08-19T12:59:57;54.20;22.30
34815;DHT22;21030;53.912;15.214;2022-08-19T13:02:23;54.50;22.20
34815;DHT22;21030;53.912;15.214;2022-08-19T13:04:50;54.60;22.20
34815;DHT22;21030;53.912;15.214;2022-08-19T13:07:17;54.60;21.50
34815;DHT22;21030;53.912;15.214;2022-08-19T13:09:44;54.30;20.90
34815;DHT22;21030;53.912;15.214;2022-08-19T13:12:11;53.90;20.80
34815;DHT22;21030;53.912;15.214;2022-08-19T13:14:41;53.40;21.00
34815;DHT22;21030;53.912;15.214;2022-08-19T13:17:08;52.90;21.40
34815;DHT22;21030;53.912;15.214;2022-08-19T13:19:36;52.40;21.90
34815;DHT22;21030;53.912;15.214;2022-08-19T13:22:03;51.90;22.40
34815;DHT22;21030;53.912;15.214;2022-08-19T13:24:38;51.50;22.80
34815;DHT22;21030;53.912;15.214;2022-08-19T13:27:11;51.10;23.00
34815;DHT22;21030;53.912;15.214;2022-08-19T13:29:39;50.90;23.40
34815;DHT22;21030;53.912;15.214;2022-08-19T13:32:25;50.30;23.60
34815;DHT22;21030;53.912;15.214;2022-08-19T13:35:10;49.90;23.80
34815;DHT22;21030;53.912;15.214;2022-08-19T13:37:42;49.60;24.40
34815;DHT22;21030;53.912;15.214;2022-08-19T13:40:10;49.50;24.60
34815;DHT22;21030;53.912;15.214;2022-08-19T13:42:39;49.30;25.10
34815;DHT22;21030;53.912;15.214;2022-08-19T13:45:07;49.20;25.60
34815;DHT22;21030;53.912;15.214;2022-08-19T13:47:34;49.00;25.60
34815;DHT22;21030;53.912;15.214;2022-08-19T13:50:04;48.80;26.00
34815;DHT22;21030;53.912;15.214;2022-08-19T13:52:31;48.70;26.20
34815;DHT22;21030;53.912;15.214;2022-08-19T13:54:58;48.60;26.10
34815;DHT22;21030;53.912;15.214;2022-08-19T13:57:25;48.40;26.20
34815;DHT22;21030;53.912;15.214;2022-08-19T13:59:52;48.10;26.20
34815;DHT22;21030;53.912;15.214;2022-08-19T14:02:19;48.00;26.10
34815;DHT22;21030;53.912;15.214;2022-08-19T14:04:48;47.80;26.40
34815;DHT22;21030;53.912;15.214;2022-08-19T14:07:15;47.40;26.90
34815;DHT22;21030;53.912;15.214;2022-08-19T14:09:42;47.40;27.00
34815;DHT22;21030;53.912;15.214;2022-08-19T14:12:11;47.40;27.10
34815;DHT22;21030;53.912;15.214;2022-08-19T14:14:53;47.60;27.00
34815;DHT22;21030;53.912;15.214;2022-08-19T14:17:23;47.40;27.00
34815;DHT22;21030;53.912;15.214;2022-08-19T14:20:00;47.30;27.00
34815;DHT22;21030;53.912;15.214;2022-08-19T14:22:37;47.40;27.00
34815;DHT22;21030;53.912;15.214;2022-08-19T14:25:05;47.70;27.50
34815;DHT22;21030;53.912;15.214;2022-08-19T14:27:33;47.80;27.40
34815;DHT22;21030;53.912;15.214;2022-08-19T14:30:01;48.30;27.20
34815;DHT22;21030;53.912;15.214;2022-08-19T14:32:28;48.80;26.70
34815;DHT22;21030;53.912;15.214;2022-08-19T14:34:55;49.60;26.40
34815;DHT22;21030;53.912;15.214;2022-08-19T14:37:22;49.90;25.70
34815;DHT22;21030;53.912;15.214;2022-08-19T14:39:50;50.10;25.60
34815;DHT22;21030;53.912;15.214;2022-08-19T14:42:20;50.10;25.80
34815;DHT22;21030;53.912;15.214;2022-08-19T14:44:47;49.50;26.50
34815;DHT22;21030;53.912;15.214;2022-08-19T14:47:14;49.40;27.50
34815;DHT22;21030;53.912;15.214;2022-08-19T14:49:41;48.50;27.60
34815;DHT22;21030;53.912;15.214;2022-08-19T14:52:13;47.80;28.40
34815;DHT22;21030;53.912;15.214;2022-08-19T14:54:40;47.10;28.90
34815;DHT22;21030;53.912;15.214;2022-08-19T14:57:10;46.60;29.40
34815;DHT22;21030;53.912;15.214;2022-08-19T14:59:37;46.20;29.90
34815;DHT22;21030;53.912;15.214;2022-08-19T15:02:05;45.60;30.20
34815;DHT22;21030;53.912;15.214;2022-08-19T15:04:52;45.50;30.50
34815;DHT22;21030;53.912;15.214;2022-08-19T15:07:24;45.30;31.10
34815;DHT22;21030;53.912;15.214;2022-08-19T15:09:55;45.40;31.40
34815;DHT22;21030;53.912;15.214;2022-08-19T15:12:22;45.20;30.90
34815;DHT22;21030;53.912;15.214;2022-08-19T15:14:49;44.80;31.30
34815;DHT22;21030;53.912;15.214;2022-08-19T15:17:22;44.70;31.30
34815;DHT22;21030;53.912;15.214;2022-08-19T15:20:09;44.60;31.80
34815;DHT22;21030;53.912;15.214;2022-08-19T15:22:36;44.70;32.10
34815;DHT22;21030;53.912;15.214;2022-08-19T15:25:04;45.00;33.10
34815;DHT22;21030;53.912;15.214;2022-08-19T15:27:32;45.00;32.10
34815;DHT22;21030;53.912;15.214;2022-08-19T15:29:59;45.10;31.70
34815;DHT22;21030;53.912;15.214;2022-08-19T15:32:27;45.30;32.10
34815;DHT22;21030;53.912;15.214;2022-08-19T15:34:57;45.10;32.00
34815;DHT22;21030;53.912;15.214;2022-08-19T15:37:24;44.80;31.80
34815;DHT22;21030;53.912;15.214;2022-08-19T15:39:51;44.60;31.90
34815;DHT22;21030;53.912;15.214;2022-08-19T15:42:18;44.50;32.10